createdAt,value
2019-03-16T00:00:20.116Z,11.07
2019-03-16T00:05:11.787Z,5.20
2019-03-16T00:10:02.692Z,7.87
2019-03-16T00:14:54.354Z,3.33
2019-03-16T00:19:45.291Z,8.27
2019-03-16T00:24:36.203Z,8.63
2019-03-16T00:29:27.115Z,8.73
2019-03-16T00:34:18.034Z,7.80
2019-03-16T00:39:08.945Z,7.83
2019-03-16T00:43:59.887Z,5.70
2019-03-16T00:48:50.808Z,4.07
2019-03-16T00:53:41.734Z,5.03
2019-03-16T00:58:32.638Z,10.60
2019-03-16T01:03:23.539Z,8.30
2019-03-16T01:08:14.480Z,7.47
2019-03-16T01:13:05.395Z,13.33
2019-03-16T01:17:56.343Z,8.23
2019-03-16T01:22:47.267Z,6.40
2019-03-16T01:27:38.180Z,11.27
2019-03-16T01:32:40.020Z,14.70
2019-03-16T01:37:20.041Z,14.43
2019-03-16T01:42:11.697Z,11.77
2019-03-16T01:47:02.604Z,7.47
2019-03-16T01:51:53.545Z,8.77
2019-03-16T01:56:44.454Z,8.20
2019-03-16T02:01:35.373Z,8.27
2019-03-16T02:06:26.278Z,4.80
2019-03-16T02:11:17.922Z,14.57
2019-03-16T02:16:11.414Z,8.82
2019-03-16T02:20:59.754Z,12.03
2019-03-16T02:25:51.406Z,12.27
2019-03-16T02:30:42.323Z,8.03
2019-03-16T02:35:33.231Z,10.03
2019-03-16T02:40:24.120Z,4.50
2019-03-16T02:45:15.770Z,12.60
2019-03-16T02:50:07.421Z,12.50
2019-03-16T02:54:58.332Z,14.45
2019-03-16T02:59:49.251Z,10.60
2019-03-16T03:04:40.161Z,7.63
2019-03-16T03:09:31.810Z,13.87
2019-03-16T03:14:22.711Z,7.90
2019-03-16T03:19:14.357Z,5.47
2019-03-16T03:24:05.998Z,7.23
2019-03-16T03:28:56.898Z,15.27
2019-03-16T03:34:00.016Z,11.00
2019-03-16T03:38:39.509Z,13.93
2019-03-16T03:43:30.394Z,11.50
2019-03-16T03:48:21.294Z,9.67
2019-03-16T03:53:12.201Z,6.57
2019-03-16T03:58:03.094Z,7.40
2019-03-16T04:02:53.992Z,4.30
2019-03-16T04:07:44.904Z,13.53
2019-03-16T04:12:35.818Z,9.73
2019-03-16T04:17:26.718Z,8.10
2019-03-16T04:22:17.616Z,7.23
2019-03-16T04:27:15.819Z,10.70
2019-03-16T04:32:00.189Z,5.70
2019-03-16T04:36:51.829Z,11.77
2019-03-16T04:41:42.726Z,9.63
2019-03-16T04:46:34.380Z,13.62
2019-03-16T04:51:25.290Z,12.23
2019-03-16T04:56:16.934Z,4.27
2019-03-16T05:01:07.846Z,7.00
2019-03-16T05:05:59.498Z,5.23
2019-03-16T05:10:50.399Z,6.30
2019-03-16T05:15:42.093Z,4.90
2019-03-16T05:20:33.002Z,10.33
2019-03-16T05:25:23.918Z,9.50
2019-03-16T05:30:15.067Z,7.80
2019-03-16T05:35:05.966Z,8.80
2019-03-16T05:39:56.878Z,4.90
2019-03-16T05:44:47.782Z,10.97
2019-03-16T05:49:38.685Z,9.80
2019-03-16T05:54:29.661Z,8.03
2019-03-16T05:59:20.570Z,3.33
2019-03-16T06:04:11.472Z,11.27
2019-03-16T06:09:02.382Z,10.15
2019-03-16T06:13:53.302Z,13.67
2019-03-16T06:18:44.201Z,8.27
2019-03-16T06:23:35.115Z,10.87
2019-03-16T06:28:26.343Z,12.13
2019-03-16T06:33:17.963Z,11.23
2019-03-16T06:38:09.607Z,16.77
2019-03-16T06:43:00.569Z,11.77
2019-03-16T06:47:54.607Z,8.23
2019-03-16T06:52:42.414Z,7.10
2019-03-16T06:57:33.322Z,6.10
2019-03-16T07:02:24.273Z,9.40
2019-03-16T07:07:15.178Z,10.87
2019-03-16T07:12:06.922Z,9.23
2019-03-16T07:17:02.382Z,11.30
2019-03-16T07:21:49.499Z,18.58
2019-03-16T07:26:41.209Z,6.07
2019-03-16T07:31:32.122Z,7.30
2019-03-16T07:36:23.038Z,12.53
2019-03-16T07:41:13.946Z,11.37
2019-03-16T07:46:04.838Z,12.07
2019-03-16T07:50:55.734Z,14.93
2019-03-16T08:01:06.485Z,11.50
2019-03-16T08:05:57.392Z,13.20
2019-03-16T08:10:48.376Z,9.43
2019-03-16T08:15:40.023Z,7.27
2019-03-16T08:20:31.787Z,9.80
2019-03-16T08:25:22.582Z,5.47
2019-03-16T08:30:13.474Z,11.83
2019-03-16T08:35:04.469Z,7.53
2019-03-16T08:39:55.387Z,14.63
2019-03-16T08:44:46.287Z,13.15
2019-03-16T08:49:37.242Z,7.50
2019-03-16T08:54:28.134Z,11.80
2019-03-16T08:59:19.063Z,9.37
2019-03-16T09:04:09.967Z,10.40
2019-03-16T09:09:00.870Z,13.87
2019-03-16T09:13:51.831Z,10.35
2019-03-16T09:18:42.738Z,12.87
2019-03-16T09:23:33.645Z,12.00
2019-03-16T09:28:24.566Z,12.87
2019-03-16T09:33:15.551Z,10.70
2019-03-16T09:38:06.401Z,16.63
2019-03-16T09:42:57.306Z,11.10
2019-03-16T09:47:48.214Z,12.95
2019-03-16T09:52:39.119Z,8.83
2019-03-16T09:57:30.038Z,17.30
2019-03-16T10:02:21.014Z,12.53
2019-03-16T10:07:11.915Z,7.03
2019-03-16T10:12:02.817Z,5.70
2019-03-16T10:16:53.722Z,13.63
2019-03-16T10:21:44.689Z,13.67
2019-03-16T10:26:37.556Z,11.10
2019-03-16T10:31:26.530Z,11.52
2019-03-16T10:36:17.435Z,5.40
2019-03-16T10:41:08.338Z,8.97
2019-03-16T10:45:59.286Z,19.00
2019-03-16T10:50:50.257Z,5.13
2019-03-16T10:55:41.166Z,6.73
2019-03-16T11:00:32.089Z,6.20
2019-03-16T11:05:23.001Z,6.37
2019-03-16T11:10:14.054Z,4.90
2019-03-16T11:15:05.678Z,2.70
2019-03-16T11:19:56.588Z,7.13
2019-03-16T11:24:47.505Z,2.50
2019-03-16T11:29:38.462Z,2.20
2019-03-16T11:34:29.375Z,7.62
2019-03-16T11:39:20.287Z,4.62
2019-03-16T11:44:11.194Z,5.20
2019-03-16T11:49:02.095Z,2.47
2019-03-16T11:53:52.998Z,4.33
2019-03-16T11:58:44.636Z,4.40
2019-03-16T12:03:35.586Z,3.40
2019-03-16T12:08:26.491Z,5.35
2019-03-16T12:13:19.058Z,3.10
2019-03-16T12:18:08.307Z,4.30
2019-03-16T12:22:59.945Z,2.00
2019-03-16T12:27:51.119Z,1.70
2019-03-16T12:32:42.072Z,5.47
2019-03-16T12:37:33.726Z,6.00
2019-03-16T12:42:24.633Z,1.67
2019-03-16T12:47:16.339Z,2.90
2019-03-16T12:52:07.238Z,1.63
2019-03-16T12:56:58.212Z,2.60
2019-03-16T13:01:49.101Z,2.00
2019-03-16T13:06:40.125Z,2.07
2019-03-16T13:11:31.029Z,1.30
2019-03-16T13:16:21.937Z,1.80
2019-03-16T13:21:12.846Z,2.35
2019-03-16T13:26:03.790Z,1.37
2019-03-16T13:30:54.685Z,1.67
2019-03-16T13:35:45.593Z,2.00
2019-03-16T13:40:36.490Z,1.60
2019-03-16T13:45:28.162Z,1.90
2019-03-16T13:50:19.063Z,1.20
2019-03-16T13:55:10.577Z,1.33
2019-03-16T14:00:11.085Z,1.40
2019-03-16T14:04:53.231Z,1.50
2019-03-16T14:09:44.185Z,1.47
2019-03-16T14:14:35.117Z,1.30
2019-03-16T14:19:26.022Z,1.30
2019-03-16T14:24:16.935Z,1.57
2019-03-16T14:29:07.838Z,1.30
2019-03-16T14:33:58.759Z,1.40
2019-03-16T14:38:49.726Z,1.23
2019-03-16T14:43:40.642Z,1.50
2019-03-16T14:48:33.034Z,1.10
2019-03-16T14:53:24.678Z,1.30
2019-03-16T14:58:15.585Z,1.10
2019-03-16T15:03:07.225Z,1.27
2019-03-16T15:07:58.909Z,0.83
2019-03-16T15:12:49.815Z,0.90
2019-03-16T15:17:40.725Z,1.10
2019-03-16T15:22:31.658Z,0.90
2019-03-16T15:27:22.594Z,2.30
2019-03-16T15:32:13.493Z,0.90
2019-03-16T15:37:04.396Z,1.23
2019-03-16T15:41:55.309Z,2.30
2019-03-16T15:46:46.210Z,1.20
2019-03-16T15:51:38.296Z,1.20
2019-03-16T15:56:28.822Z,1.10
2019-03-16T16:01:20.487Z,0.90
2019-03-16T16:06:12.189Z,1.33
2019-03-16T16:11:03.197Z,0.93
2019-03-16T16:15:54.137Z,1.10
2019-03-16T16:20:45.037Z,1.00
2019-03-16T16:25:35.937Z,1.00
2019-03-16T16:30:26.833Z,1.33
2019-03-16T16:35:18.481Z,1.43
2019-03-16T16:40:14.410Z,1.30
2019-03-16T16:45:05.298Z,1.60
2019-03-16T16:49:56.202Z,1.40
2019-03-16T16:56:53.733Z,1.90
2019-03-16T17:01:44.666Z,2.30
2019-03-16T17:06:35.582Z,2.30
2019-03-16T17:11:26.565Z,2.40
2019-03-16T17:16:17.397Z,2.60
2019-03-16T17:21:09.095Z,2.40
2019-03-16T17:26:00.058Z,3.30
2019-03-16T17:30:50.914Z,3.62
2019-03-16T17:35:41.822Z,4.20
2019-03-16T17:40:32.717Z,4.30
2019-03-16T17:45:23.617Z,4.40
2019-03-16T17:50:15.275Z,4.63
2019-03-16T17:55:06.970Z,4.83
2019-03-16T17:59:57.873Z,6.47
2019-03-16T18:04:48.778Z,6.47
2019-03-16T18:09:39.722Z,8.90
2019-03-16T18:14:31.385Z,7.17
2019-03-16T18:19:23.086Z,7.40
2019-03-16T18:24:13.985Z,8.00
2019-03-16T18:29:04.886Z,8.37
2019-03-16T18:33:55.799Z,9.33
2019-03-16T18:38:46.808Z,7.30
2019-03-16T18:43:37.719Z,8.73
2019-03-16T18:48:30.508Z,7.93
2019-03-16T18:53:20.346Z,7.10
2019-03-16T18:58:11.242Z,9.73
2019-03-16T19:03:02.218Z,8.43
2019-03-16T19:07:53.919Z,9.83
2019-03-16T19:12:44.938Z,7.60
2019-03-16T19:17:35.841Z,6.70
2019-03-16T19:22:26.741Z,7.20
2019-03-16T19:27:19.114Z,5.82
2019-03-16T19:32:08.601Z,5.37
2019-03-16T19:36:59.498Z,5.33
2019-03-16T19:41:50.499Z,4.70
2019-03-16T19:46:42.158Z,4.10
2019-03-16T19:51:33.086Z,4.30
2019-03-16T19:56:23.989Z,4.47
2019-03-16T20:01:14.898Z,3.40
2019-03-16T20:06:05.811Z,4.07
2019-03-16T20:11:05.949Z,3.73
2019-03-16T20:15:48.099Z,3.93
2019-03-16T20:20:39.538Z,4.13
2019-03-16T20:25:30.487Z,4.33
2019-03-16T20:30:26.998Z,3.40
2019-03-16T20:35:13.929Z,5.17
2019-03-16T20:40:08.843Z,4.13
2019-03-16T20:44:59.777Z,4.27
2019-03-16T20:49:50.773Z,3.70
2019-03-16T20:54:41.698Z,3.83
2019-03-16T20:59:32.620Z,3.50
2019-03-16T21:04:23.517Z,3.20
2019-03-16T21:09:14.446Z,4.10
2019-03-16T21:14:05.385Z,3.60
2019-03-16T21:18:56.307Z,2.70
2019-03-16T21:23:47.318Z,2.50
2019-03-16T21:28:38.356Z,2.37
2019-03-16T21:33:30.126Z,2.53
2019-03-16T21:38:20.961Z,2.60
2019-03-16T21:43:11.914Z,2.40
2019-03-16T21:48:02.814Z,2.50
2019-03-16T21:52:53.758Z,2.27
2019-03-16T21:57:44.778Z,1.80
2019-03-16T22:02:35.681Z,1.87
2019-03-16T22:07:26.606Z,1.70
2019-03-16T22:12:17.522Z,2.10
2019-03-16T22:17:08.454Z,1.97
2019-03-16T22:22:00.233Z,4.30
2019-03-16T22:26:51.121Z,1.83
2019-03-16T22:31:42.809Z,1.27
2019-03-16T22:36:33.725Z,1.83
2019-03-16T22:41:24.711Z,2.80
2019-03-16T22:46:16.402Z,1.90
2019-03-16T22:51:07.269Z,1.98
2019-03-16T22:55:59.007Z,1.93
2019-03-16T23:00:50.648Z,1.98
2019-03-16T23:05:41.563Z,2.17
2019-03-16T23:10:32.749Z,1.80
2019-03-16T23:15:23.658Z,2.20
2019-03-16T23:20:14.562Z,2.90
2019-03-16T23:25:05.547Z,5.90
2019-03-16T23:29:57.429Z,2.40
2019-03-16T23:34:48.340Z,2.30
2019-03-16T23:39:39.241Z,2.30
2019-03-16T23:44:30.610Z,2.27
2019-03-16T23:49:21.543Z,2.17
2019-03-16T23:54:12.455Z,5.33
2019-03-16T23:59:03.364Z,2.20
